^^
Datos históricos de la estación: Murcia-Puente Tocinos
Diario Informe para Abril 20, 2019 Unidades:  Métrico    Ingés   Ambas
Diario Semanal Mensual Anual
  Máxima: Mínima: Promedio:
Temperatura: 31.9 °C 24.4 °C 27.7 °C
Punto de rocio: 23.3 °C 20 °C 21.9 °C
Humedad: 89% 51.1% 72%
Velocidad viento: 22.5km/h 0km/h 8.7km/h
Racha viento: 40.7km/h - -
Viento- - Este
Presión: 1016.9 hPa 1012.1 hPa -
Precipitación: 0.0 mm    
 
 
Tabla de datos para Abril 20, 2019
Hora Temperatura Punto de rocio Presión Viento Velocidad viento Racha viento Humedad Intensidad lluvia(por hora) Nubes
00:04 26.7 °C 23.2 °C 1013.0 hPa NE 6.5 km/h 11.3 km/h 81% 0.0 mm
00:09 26.7 °C 23.2 °C 1013.0 hPa NE 6.3 km/h 11.3 km/h 81% 0.0 mm
00:14 26.7 °C 23.2 °C 1013.0 hPa NE 5.8 km/h 11.1 km/h 81% 0.0 mm
00:19 26.7 °C 23.2 °C 1013.1 hPa NNE 5.8 km/h 11.3 km/h 81% 0.0 mm
00:24 26.7 °C 23.2 °C 1013.1 hPa NNO 5.8 km/h 8 km/h 81.3% 0.0 mm
00:29 26.7 °C 23.2 °C 1013.1 hPa NNE 5.4 km/h 8 km/h 81.2% 0.0 mm
00:34 26.6 °C 23.3 °C 1013.1 hPa North 3.9 km/h 8 km/h 82% 0.0 mm
00:39 26.6 °C 23.3 °C 1013.1 hPa NNE 4 km/h 8 km/h 82% 0.0 mm
00:44 26.6 °C 23.3 °C 1013.1 hPa NE 4.7 km/h 8.4 km/h 82% 0.0 mm
00:49 26.6 °C 23.2 °C 1013.1 hPa NE 4.7 km/h 8 km/h 82% 0.0 mm
00:54 26.5 °C 23.2 °C 1013.1 hPa NNE 5 km/h 8 km/h 82% 0.0 mm
00:59 26.5 °C 23.2 °C 1013.1 hPa NE 4.7 km/h 8.4 km/h 82% 0.0 mm
01:04 26.5 °C 23.1 °C 1013.1 hPa NE 3.9 km/h 8 km/h 81.5% 0.0 mm
01:09 26.5 °C 23 °C 1013.0 hPa NE 3.9 km/h 8 km/h 81% 0.0 mm
01:14 26.5 °C 23 °C 1013.0 hPa ENE 3.9 km/h 8 km/h 81% 0.0 mm
01:19 26.5 °C 23 °C 1013.1 hPa NE 3.7 km/h 8 km/h 81% 0.0 mm
01:24 26.6 °C 23 °C 1013.1 hPa ENE 3.2 km/h 8 km/h 81% 0.0 mm
01:29 26.5 °C 23 °C 1013.1 hPa NE 3.2 km/h 7.4 km/h 81% 0.0 mm
01:34 26.5 °C 22.9 °C 1013.1 hPa NE 3.2 km/h 8 km/h 81% 0.0 mm
01:39 26.5 °C 22.9 °C 1012.9 hPa NE 3.4 km/h 8 km/h 81% 0.0 mm
01:44 26.5 °C 22.9 °C 1012.9 hPa NNE 3.9 km/h 8 km/h 81% 0.0 mm
01:49 26.4 °C 22.9 °C 1012.9 hPa NE 4 km/h 8.4 km/h 81% 0.0 mm
01:54 26.4 °C 22.9 °C 1012.8 hPa NE 4.7 km/h 8.4 km/h 81% 0.0 mm
01:59 26.4 °C 22.9 °C 1012.8 hPa NNE 4.9 km/h 10 km/h 81.3% 0.0 mm
02:04 26.3 °C 23 °C 1012.8 hPa NNE 5.8 km/h 9.7 km/h 82% 0.0 mm
02:09 26.3 °C 23 °C 1012.6 hPa NNE 5.5 km/h 9.7 km/h 82% 0.0 mm
02:14 26.2 °C 22.9 °C 1012.6 hPa NNE 4.7 km/h 9.7 km/h 82.1% 0.0 mm
02:19 26.2 °C 23.1 °C 1012.7 hPa NNE 4.5 km/h 8 km/h 83% 0.0 mm
02:24 26.2 °C 23.1 °C 1012.7 hPa NE 3.9 km/h 8 km/h 83% 0.0 mm
02:29 26.1 °C 23 °C 1012.7 hPa NE 3.9 km/h 8 km/h 83% 0.0 mm
02:34 26.1 °C 23 °C 1012.7 hPa NE 3.9 km/h 8 km/h 83% 0.0 mm
02:39 26.1 °C 23 °C 1012.7 hPa NE 4 km/h 8 km/h 83.2% 0.0 mm
02:44 26.1 °C 23.2 °C 1012.7 hPa NE 4.7 km/h 9.3 km/h 84% 0.0 mm
02:49 26 °C 23.1 °C 1012.7 hPa NE 4.7 km/h 9.7 km/h 84% 0.0 mm
02:54 25.9 °C 23 °C 1012.7 hPa NNE 4.7 km/h 8 km/h 84% 0.0 mm
02:59 25.9 °C 23.1 °C 1012.7 hPa NNE 4.2 km/h 8 km/h 84.8% 0.0 mm
03:04 25.9 °C 23.2 °C 1012.7 hPa NNO 2.9 km/h 8 km/h 85% 0.0 mm
03:09 25.9 °C 23.2 °C 1012.7 hPa NO 3 km/h 8 km/h 85% 0.0 mm
03:14 25.9 °C 23 °C 1012.7 hPa NO 3.2 km/h 6.4 km/h 84.2% 0.0 mm
03:19 25.9 °C 23 °C 1012.8 hPa NO 2.5 km/h   84% 0.0 mm
03:24 25.9 °C 23.1 °C 1012.8 hPa Calm     84.6% 0.0 mm
03:29 25.9 °C 23.2 °C 1012.8 hPa Calm     85% 0.0 mm
03:34 25.9 °C 23.2 °C 1012.8 hPa Calm     85% 0.0 mm
03:39 25.9 °C 23.2 °C 1012.7 hPa Calm   5 km/h 85% 0.0 mm
03:44 25.9 °C 23.2 °C 1012.7 hPa Calm   6.9 km/h 85% 0.0 mm
03:49 25.8 °C 23.1 °C 1012.7 hPa ESE 0.9 km/h 8 km/h 85% 0.0 mm
03:54 25.8 °C 23.1 °C 1012.5 hPa Este 3.9 km/h 8 km/h 85% 0.0 mm
03:59 25.7 °C 23.1 °C 1012.5 hPa Este 4.1 km/h 8 km/h 85% 0.0 mm
04:04 25.7 °C 23.1 °C 1012.5 hPa ESE 5 km/h 8 km/h 85.6% 0.0 mm
04:09 25.7 °C 23.1 °C 1012.4 hPa ESE 4.8 km/h 8 km/h 85.7% 0.0 mm
04:14 25.6 °C 23 °C 1012.4 hPa ESE 3.9 km/h 8 km/h 85.8% 0.0 mm
04:19 25.6 °C 23.1 °C 1012.4 hPa ENE 3.7 km/h 8 km/h 86% 0.0 mm
04:24 25.6 °C 23 °C 1012.3 hPa NE 3.2 km/h 8 km/h 86% 0.0 mm
04:29 25.5 °C 23 °C 1012.3 hPa NE 3.2 km/h 6.4 km/h 86% 0.0 mm
04:34 25.4 °C 22.9 °C 1012.3 hPa NE 3.2 km/h 5.6 km/h 86% 0.0 mm
04:39 25.4 °C 22.9 °C 1012.3 hPa NE 3.2 km/h 7.4 km/h 86% 0.0 mm
04:44 25.4 °C 22.9 °C 1012.3 hPa NNE 3.2 km/h 8 km/h 86% 0.0 mm
04:49 25.3 °C 22.8 °C 1012.3 hPa NNE 3.4 km/h 8 km/h 86% 0.0 mm
04:54 25.3 °C 23 °C 1012.1 hPa NNE 3.9 km/h 8 km/h 87% 0.0 mm
04:59 25.3 °C 23 °C 1012.1 hPa NNE 3.6 km/h 5.6 km/h 87% 0.0 mm
05:04 25.3 °C 23 °C 1012.2 hPa North 2.9 km/h 5.8 km/h 87% 0.0 mm
05:09 25.2 °C 22.9 °C 1012.2 hPa NO 3 km/h 7.4 km/h 87% 0.0 mm
05:14 25.2 °C 22.9 °C 1012.2 hPa NO 3.2 km/h 8 km/h 87% 0.0 mm
05:19 25.1 °C 22.8 °C 1012.3 hPa NNO 3.1 km/h 7.4 km/h 87% 0.0 mm
05:24 25.1 °C 22.8 °C 1012.3 hPa NNO 2.9 km/h 8 km/h 87% 0.0 mm
05:29 25.1 °C 22.8 °C 1012.3 hPa NNO 2.3 km/h 4.8 km/h 87% 0.0 mm
05:34 25.1 °C 22.8 °C 1012.3 hPa Calm   5.8 km/h 87% 0.0 mm
05:39 25.1 °C 22.8 °C 1012.2 hPa NNO 0.6 km/h 6.4 km/h 87% 0.0 mm
05:44 25.1 °C 22.7 °C 1012.2 hPa NNO 2.9 km/h 6.4 km/h 87% 0.0 mm
05:49 25 °C 22.7 °C 1012.3 hPa NNO 2.3 km/h 5 km/h 87% 0.0 mm
05:54 25 °C 22.6 °C 1012.3 hPa Calm   11.1 km/h 87% 0.0 mm
05:59 24.7 °C 22.4 °C 1012.3 hPa ESE 1.6 km/h 11.3 km/h 87.1% 0.0 mm
06:04 24.6 °C 22.5 °C 1012.3 hPa ESE 6.5 km/h 9.7 km/h 88% 0.0 mm
06:09 24.5 °C 22.4 °C 1012.3 hPa ESE 5.9 km/h 8 km/h 88% 0.0 mm
06:14 24.4 °C 22.3 °C 1012.3 hPa ESE 3.9 km/h 8 km/h 88% 0.0 mm
06:19 24.4 °C 22.4 °C 1012.3 hPa ESE 3 km/h 3.2 km/h 88.9% 0.0 mm
06:24 24.4 °C 22.5 °C 1012.1 hPa Calm     89% 0.0 mm
06:29 24.5 °C 22.5 °C 1012.1 hPa Calm     89% 0.0 mm
06:34 24.5 °C 22.6 °C 1012.1 hPa Calm     89% 0.0 mm
06:39 24.5 °C 22.6 °C 1012.1 hPa Calm     89% 0.0 mm
06:44 24.6 °C 22.7 °C 1012.1 hPa Calm     89% 0.0 mm
06:49 24.6 °C 22.7 °C 1012.2 hPa Calm     88.9% 0.0 mm
06:54 24.6 °C 22.6 °C 1012.2 hPa Calm     88.6% 0.0 mm
06:59 24.6 °C 22.7 °C 1012.2 hPa Calm     89% 0.0 mm
07:04 24.6 °C 22.5 °C 1012.4 hPa Calm   5.6 km/h 88.4% 0.0 mm
07:09 24.5 °C 22.4 °C 1012.4 hPa Calm   4.8 km/h 88% 0.0 mm
07:14 24.6 °C 22.5 °C 1012.4 hPa Calm   3.2 km/h 88% 0.0 mm
07:19 24.6 °C 22.5 °C 1012.5 hPa Calm     88% 0.0 mm
07:24 24.6 °C 22.5 °C 1012.5 hPa Calm   3.2 km/h 88% 0.0 mm
07:29 24.6 °C 22.5 °C 1012.5 hPa Calm   5.8 km/h 88% 0.0 mm
07:34 24.7 °C 22.5 °C 1012.5 hPa Calm   7.6 km/h 87.6% 0.0 mm
07:39 24.6 °C 22.3 °C 1012.5 hPa Sur 0.9 km/h 8 km/h 87% 0.0 mm
07:44 24.6 °C 22.3 °C 1012.5 hPa SE 3.9 km/h 8 km/h 87% 0.0 mm
07:49 24.7 °C 22.4 °C 1012.6 hPa SE 3.6 km/h 5.8 km/h 87% 0.0 mm
07:54 24.7 °C 22.4 °C 1012.6 hPa SE 2.9 km/h 7.4 km/h 87% 0.0 mm
07:59 24.8 °C 22.3 °C 1012.6 hPa SSE 3.2 km/h 8.4 km/h 86.5% 0.0 mm
08:04 24.8 °C 22.3 °C 1012.6 hPa SE 3.9 km/h 8 km/h 86% 0.0 mm
08:09 24.9 °C 22.3 °C 1012.6 hPa SSE 4 km/h 8 km/h 85.3% 0.0 mm
08:14 25 °C 22.3 °C 1012.6 hPa SSE 4.7 km/h 8 km/h 85% 0.0 mm
08:19 25.1 °C 22.4 °C 1012.7 hPa SSO 4.4 km/h 8 km/h 85% 0.0 mm
08:24 25.2 °C 22.3 °C 1012.7 hPa SSO 3.2 km/h 8 km/h 84% 0.0 mm
08:29 25.2 °C 22.3 °C 1012.7 hPa SSO 3.6 km/h 8 km/h 84% 0.0 mm
08:34 25.3 °C 22.4 °C 1012.9 hPa Oeste 4.7 km/h 8 km/h 83.6% 0.0 mm
08:39 25.5 °C 22.6 °C 1012.9 hPa ONO 4.5 km/h 8 km/h 83.9% 0.0 mm
08:44 25.6 °C 22.7 °C 1012.9 hPa NO 3.9 km/h 8 km/h 84% 0.0 mm
08:49 25.6 °C 22.7 °C 1013.1 hPa ONO 4 km/h 8 km/h 84% 0.0 mm
08:54 25.7 °C 22.7 °C 1013.1 hPa Oeste 4.7 km/h 8 km/h 83.9% 0.0 mm
08:59 25.7 °C 22.6 °C 1013.1 hPa Oeste 4.7 km/h 8.4 km/h 83% 0.0 mm
09:04 25.7 °C 22.6 °C 1013.1 hPa OSO 4.7 km/h 8 km/h 83% 0.0 mm
09:09 25.8 °C 22.7 °C 1013.1 hPa Oeste 4.3 km/h 8 km/h 83% 0.0 mm
09:14 25.9 °C 22.6 °C 1013.1 hPa Oeste 3.2 km/h 8 km/h 82.1% 0.0 mm
09:19 26 °C 22.7 °C 1013.3 hPa OSO 3.6 km/h 8.4 km/h 82% 0.0 mm
09:24 26.1 °C 22.7 °C 1013.3 hPa OSO 5 km/h 8 km/h 82% 0.0 mm
09:29 26.2 °C 22.8 °C 1013.3 hPa Oeste 4.7 km/h 8 km/h 82% 0.0 mm
09:34 26.3 °C 22.8 °C 1013.4 hPa ONO 3.9 km/h 7.4 km/h 81.4% 0.0 mm
09:39 26.5 °C 23 °C 1013.4 hPa ONO 3.6 km/h 9.5 km/h 81.2% 0.0 mm
09:44 26.7 °C 22.8 °C 1013.4 hPa ONO 2.9 km/h 9.7 km/h 79.3% 0.0 mm
09:49 26.8 °C 22.8 °C 1013.5 hPa Oeste 3 km/h 9.7 km/h 78.7% 0.0 mm
09:54 26.9 °C 22.8 °C 1013.5 hPa SSO 3.2 km/h 8 km/h 78.3% 0.0 mm
09:59 27.1 °C 22.8 °C 1013.5 hPa Sur 3.2 km/h 11.1 km/h 77.5% 0.0 mm
10:04 27.2 °C 22.8 °C 1013.5 hPa SE 3.2 km/h 11.3 km/h 77% 0.0 mm
10:09 27.3 °C 22.9 °C 1013.5 hPa SSE 3.6 km/h 8 km/h 76.8% 0.0 mm
10:14 27.5 °C 22.7 °C 1013.5 hPa NE 5 km/h 11.9 km/h 75.4% 0.0 mm
10:19 27.6 °C 22.6 °C 1013.6 hPa ENE 5.1 km/h 11.3 km/h 74.2% 0.0 mm
10:24 27.6 °C 22.4 °C 1013.6 hPa ENE 5.8 km/h 11.3 km/h 73.4% 0.0 mm
10:29 27.6 °C 22.6 °C 1013.6 hPa ENE 5.9 km/h 11.3 km/h 74% 0.0 mm
10:34 27.8 °C 22.5 °C 1013.6 hPa ESE 6.5 km/h 11.3 km/h 73% 0.0 mm
10:39 28.1 °C 22.7 °C 1013.6 hPa ENE 6.1 km/h 9.7 km/h 72.8% 0.0 mm
10:44 28.4 °C 22.6 °C 1013.6 hPa ENE 4.7 km/h 16.7 km/h 70.9% 0.0 mm
10:49 28.3 °C 22.2 °C 1013.6 hPa Este 5.3 km/h 16.1 km/h 69.8% 0.0 mm
10:54 28.4 °C 22.2 °C 1013.6 hPa Este 7.6 km/h 13.7 km/h 69.4% 0.0 mm
10:59 28.6 °C 22.2 °C 1013.6 hPa ENE 7.3 km/h 14.5 km/h 68.4% 0.0 mm
11:04 28.7 °C 21.9 °C 1013.6 hPa Este 6.5 km/h 11.9 km/h 67% 0.0 mm
11:09 28.7 °C 22 °C 1013.6 hPa ENE 6.6 km/h 11.3 km/h 67.1% 0.0 mm
11:14 28.9 °C 22.1 °C 1013.6 hPa NNE 6.9 km/h 11.3 km/h 67% 0.0 mm
11:19 29.1 °C 21.5 °C 1013.7 hPa NE 7.1 km/h 16.7 km/h 63.7% 0.0 mm
11:24 29 °C 21.2 °C 1013.7 hPa NE 7.6 km/h 16.1 km/h 62.9% 0.0 mm
11:29 29.1 °C 21.1 °C 1013.7 hPa NE 7.7 km/h 14.8 km/h 62.2% 0.0 mm
11:34 29.2 °C 21.2 °C 1013.9 hPa North 8.4 km/h 14.5 km/h 62.1% 0.0 mm
11:39 29.2 °C 21.4 °C 1013.9 hPa NNE 8.2 km/h 13.7 km/h 63% 0.0 mm
11:44 29.3 °C 21.2 °C 1013.9 hPa NNE 7.6 km/h 14.8 km/h 61.7% 0.0 mm
11:49 29.6 °C 21 °C 1013.9 hPa ENE 7.4 km/h 14.5 km/h 60.1% 0.0 mm
11:54 29.8 °C 21.1 °C 1013.8 hPa ENE 6.9 km/h 18.5 km/h 59.8% 0.0 mm
11:59 29.8 °C 21 °C 1013.8 hPa ENE 7.6 km/h 19.3 km/h 59.1% 0.0 mm
12:04 29.7 °C 20.9 °C 1013.8 hPa NNE 9.5 km/h 16.1 km/h 59.4% 0.0 mm
12:09 29.7 °C 20.9 °C 1013.8 hPa NNO 8.9 km/h 14.5 km/h 59.5% 0.0 mm
12:14 29.8 °C 21 °C 1013.8 hPa SSE 6.9 km/h 11.9 km/h 59.3% 0.0 mm
12:19 30.3 °C 20.7 °C 1013.9 hPa NE 6.5 km/h 11.3 km/h 56.8% 0.0 mm
12:24 30.6 °C 21 °C 1013.9 hPa SO 5 km/h 11.3 km/h 56.7% 0.0 mm
12:29 30.7 °C 21.2 °C 1013.9 hPa NE 5.3 km/h 16.7 km/h 56.8% 0.0 mm
12:34 30.8 °C 21.2 °C 1013.9 hPa NE 6.5 km/h 16.1 km/h 56.6% 0.0 mm
12:39 30.9 °C 20.7 °C 1013.9 hPa NE 6.5 km/h 14.8 km/h 54.6% 0.0 mm
12:44 30.9 °C 20.8 °C 1013.9 hPa NNE 6.5 km/h 16.7 km/h 55.1% 0.0 mm
12:49 30.7 °C 20.7 °C 1013.9 hPa NNE 7.3 km/h 17.2 km/h 55.1% 0.0 mm
12:54 30.6 °C 20.8 °C 1013.8 hPa NNE 10 km/h 17.7 km/h 55.9% 0.0 mm
12:59 30.8 °C 20.8 °C 1013.8 hPa NNE 9.4 km/h 18 km/h 55.5% 0.0 mm
13:04 30.8 °C 20.4 °C 1013.8 hPa NE 7.6 km/h 20.9 km/h 53.9% 0.0 mm
13:09 30.6 °C 20.2 °C 1013.7 hPa NNE 7.8 km/h 20.9 km/h 54% 0.0 mm
13:14 30.7 °C 20.3 °C 1013.7 hPa ENE 8.7 km/h 20.4 km/h 54% 0.0 mm
13:19 30.8 °C 20.4 °C 1013.7 hPa NE 8.7 km/h 20.9 km/h 53.9% 0.0 mm
13:24 30.8 °C 20.4 °C 1013.7 hPa NE 8.7 km/h 16.7 km/h 53.9% 0.0 mm
13:29 31.1 °C 20.2 °C 1013.7 hPa NNE 8.9 km/h 18.5 km/h 52.4% 0.0 mm
13:34 31.1 °C 20.1 °C 1013.7 hPa North 9.5 km/h 19.3 km/h 52.2% 0.0 mm
13:39 31.2 °C 20.4 °C 1013.6 hPa North 8.9 km/h 20.9 km/h 52.7% 0.0 mm
13:44 31.4 °C 20.3 °C 1013.6 hPa NE 6.9 km/h 22.5 km/h 52.1% 0.0 mm
13:49 31.3 °C 20 °C 1013.6 hPa NNE 8.3 km/h 22.5 km/h 51.1% 0.0 mm
13:54 31.3 °C 20 °C 1013.4 hPa NNE 13 km/h 19.3 km/h 51.3% 0.0 mm
13:59 31.3 °C 20.7 °C 1013.4 hPa ENE 12.4 km/h 24.1 km/h 53.2% 0.0 mm
14:04 31.3 °C 20.9 °C 1013.4 hPa ENE 10.3 km/h 24.1 km/h 54% 0.0 mm
14:09 31.3 °C 20.7 °C 1013.3 hPa NE 10.7 km/h 20.9 km/h 53.4% 0.0 mm
14:14 31.3 °C 20.5 °C 1013.3 hPa NE 11.9 km/h 20.9 km/h 52.9% 0.0 mm
14:19 31.3 °C 20.3 °C 1013.3 hPa NE 11.7 km/h 20.9 km/h 51.9% 0.0 mm
14:24 31.7 °C 20.5 °C 1013.2 hPa NNE 11.1 km/h 24.5 km/h 51.8% 0.0 mm
14:29 31.7 °C 21.2 °C 1013.2 hPa NE 11.3 km/h 27.4 km/h 53.8% 0.0 mm
14:34 31.7 °C 21.1 °C 1013.2 hPa Este 11.9 km/h 27.4 km/h 53.5% 0.0 mm
14:39 31.7 °C 21.2 °C 1013.2 hPa NE 12.3 km/h 24.1 km/h 53.8% 0.0 mm
14:44 31.6 °C 21.1 °C 1013.2 hPa ENE 13.7 km/h 25.9 km/h 53.9% 0.0 mm
14:49 31.6 °C 21.1 °C 1013.2 hPa ENE 13.5 km/h 28.2 km/h 54% 0.0 mm
14:54 31.4 °C 21 °C 1013.2 hPa NE 13 km/h 27.4 km/h 54.1% 0.0 mm
14:59 31.4 °C 21 °C 1013.2 hPa NE 13.7 km/h 25.7 km/h 54% 0.0 mm
15:04 31.3 °C 20.8 °C 1013.2 hPa NE 15.6 km/h 24.5 km/h 53.7% 0.0 mm
15:09 31.3 °C 20.9 °C 1013.2 hPa NE 14.9 km/h 24.1 km/h 53.9% 0.0 mm
15:14 31.4 °C 20.8 °C 1013.2 hPa NE 12.2 km/h 22.5 km/h 53.2% 0.0 mm
15:19 31.7 °C 20.9 °C 1013.3 hPa NE 12.2 km/h 19.3 km/h 53% 0.0 mm
15:24 31.6 °C 20.7 °C 1013.3 hPa ENE 11.9 km/h 19.3 km/h 52.4% 0.0 mm
15:29 31.7 °C 20.8 °C 1013.3 hPa NE 11.5 km/h 20.4 km/h 52.6% 0.0 mm
15:34 31.7 °C 20.9 °C 1013.3 hPa NE 10.3 km/h 24.1 km/h 52.7% 0.0 mm
15:39 31.7 °C 20.9 °C 1013.2 hPa NE 11.1 km/h 25.6 km/h 53.1% 0.0 mm
15:44 31.8 °C 20.9 °C 1013.2 hPa ENE 14 km/h 26.2 km/h 52.4% 0.0 mm
15:49 31.9 °C 20.9 °C 1013.2 hPa ENE 14 km/h 25.9 km/h 52.4% 0.0 mm
15:54 31.9 °C 21 °C 1013.0 hPa ENE 14 km/h 27.8 km/h 52.7% 0.0 mm
15:59 31.9 °C 20.9 °C 1013.0 hPa ENE 14.6 km/h 27.8 km/h 52.2% 0.0 mm
16:04 31.8 °C 21 °C 1013.0 hPa ENE 16.1 km/h 29.6 km/h 52.8% 0.0 mm
16:09 31.9 °C 21 °C 1012.9 hPa NE 16.3 km/h 30.6 km/h 52.4% 0.0 mm
16:14 31.9 °C 20.9 °C 1012.9 hPa NE 17.2 km/h 30.6 km/h 52.5% 0.0 mm
16:19 31.7 °C 20.8 °C 1013.1 hPa NE 17.4 km/h 34.3 km/h 52.7% 0.0 mm
16:24 31.4 °C 20.9 °C 1013.1 hPa ENE 18.4 km/h 33.8 km/h 53.6% 0.0 mm
16:29 31.5 °C 20.8 °C 1013.1 hPa NE 18.4 km/h 35.2 km/h 53.1% 0.0 mm
16:34 31.3 °C 20.7 °C 1013.1 hPa NE 18.4 km/h 35.4 km/h 53.4% 0.0 mm
16:39 31.2 °C 20.8 °C 1013.1 hPa NE 18.7 km/h 31.5 km/h 53.9% 0.0 mm
16:44 31.3 °C 20.6 °C 1013.1 hPa NE 19.8 km/h 32.2 km/h 53.1% 0.0 mm
16:49 31.2 °C 20.6 °C 1013.1 hPa NE 19.6 km/h 40.7 km/h 53.5% 0.0 mm
16:54 31.2 °C 20.7 °C 1013.1 hPa NE 19 km/h 40.7 km/h 54% 0.0 mm
16:59 30.9 °C 20.7 °C 1013.1 hPa NE 19.9 km/h 40.2 km/h 54.5% 0.0 mm
17:04 30.8 °C 20.9 °C 1013.1 hPa NE 22.5 km/h 33.8 km/h 55.7% 0.0 mm
17:09 30.7 °C 20.9 °C 1013.1 hPa NE 22 km/h 37 km/h 56% 0.0 mm
17:14 30.7 °C 21.2 °C 1013.1 hPa NE 20.1 km/h 40.7 km/h 57% 0.0 mm
17:19 30.7 °C 21.2 °C 1013.5 hPa ENE 19.7 km/h 40.7 km/h 57% 0.0 mm
17:24 30.7 °C 21.2 °C 1013.5 hPa NE 18.4 km/h 35.2 km/h 57% 0.0 mm
17:29 30.7 °C 21.2 °C 1013.5 hPa ENE 18.4 km/h 35.9 km/h 57% 0.0 mm
17:34 30.4 °C 21.2 °C 1013.5 hPa ENE 18.4 km/h 35.4 km/h 57.9% 0.0 mm
17:39 30.3 °C 21.4 °C 1013.5 hPa ENE 17.9 km/h 30.6 km/h 58.9% 0.0 mm
17:44 30.4 °C 21.4 °C 1013.5 hPa ENE 16.4 km/h 27.4 km/h 58.9% 0.0 mm
17:49 30.4 °C 21.3 °C 1013.8 hPa ENE 16.6 km/h 37.8 km/h 58.2% 0.0 mm
17:54 30.1 °C 21.2 °C 1013.8 hPa NE 17.2 km/h 37 km/h 59.1% 0.0 mm
17:59 30 °C 21.2 °C 1013.8 hPa NE 18.1 km/h 35.4 km/h 59.3% 0.0 mm
18:04 29.9 °C 21.1 °C 1013.9 hPa NE 20.9 km/h 40.7 km/h 59.3% 0.0 mm
18:09 29.7 °C 21.1 °C 1013.9 hPa ENE 21.1 km/h 40.2 km/h 60% 0.0 mm
18:14 29.6 °C 21 °C 1013.9 hPa NE 21.7 km/h 38.6 km/h 60.1% 0.0 mm
18:19 29.3 °C 21.1 °C 1013.9 hPa NE 20.7 km/h 38.9 km/h 61.1% 0.0 mm
18:24 29.3 °C 21.2 °C 1013.9 hPa ENE 17.2 km/h 38.6 km/h 62% 0.0 mm
18:29 29.3 °C 21.1 °C 1013.9 hPa NE 16.7 km/h 32.2 km/h 61.4% 0.0 mm
18:34 29.3 °C 21.1 °C 1014.0 hPa ENE 14 km/h 27.4 km/h 61.3% 0.0 mm
18:39 29.2 °C 21.2 °C 1014.0 hPa NE 13.9 km/h 25.7 km/h 62% 0.0 mm
18:44 29.1 °C 21.1 °C 1014.0 hPa ENE 13.7 km/h 33.3 km/h 62% 0.0 mm
18:49 29.1 °C 21.2 °C 1014.3 hPa ENE 13.7 km/h 33.8 km/h 62.5% 0.0 mm
18:54 29 °C 21.3 °C 1014.3 hPa ENE 14 km/h 29.6 km/h 63.2% 0.0 mm
18:59 28.9 °C 21.2 °C 1014.3 hPa Este 14.5 km/h 33.3 km/h 63.2% 0.0 mm
19:04 28.8 °C 21.3 °C 1014.3 hPa ENE 16.1 km/h 33.8 km/h 64% 0.0 mm
19:09 29 °C 21.4 °C 1014.2 hPa ENE 15.6 km/h 27.4 km/h 63.8% 0.0 mm
19:14 29.1 °C 21.3 °C 1014.2 hPa ENE 13.7 km/h 39.6 km/h 63% 0.0 mm
19:19 28.9 °C 21.3 °C 1014.6 hPa ENE 14.3 km/h 40.2 km/h 63.5% 0.0 mm
19:24 28.8 °C 21.5 °C 1014.6 hPa ENE 16.4 km/h 29.6 km/h 64.9% 0.0 mm
19:29 28.7 °C 21.5 °C 1014.6 hPa ENE 16.6 km/h 29.6 km/h 65.4% 0.0 mm
19:34 28.6 °C 21.7 °C 1014.9 hPa NE 17.2 km/h 29 km/h 66.3% 0.0 mm
19:39 28.4 °C 21.7 °C 1014.9 hPa NE 17 km/h 31.7 km/h 67.1% 0.0 mm
19:44 28.3 °C 21.8 °C 1014.9 hPa NE 16.1 km/h 32.2 km/h 68% 0.0 mm
19:49 28.3 °C 22 °C 1015.0 hPa NE 15.8 km/h 23.7 km/h 68.8% 0.0 mm
19:54 28.3 °C 22.1 °C 1015.0 hPa NE 14.8 km/h 33.5 km/h 69.4% 0.0 mm
19:59 28.2 °C 22.3 °C 1015.0 hPa NE 15.6 km/h 33.8 km/h 70.6% 0.0 mm
20:04 27.9 °C 22.1 °C 1015.0 hPa NE 18 km/h 33.8 km/h 70.7% 0.0 mm
20:09 27.9 °C 21.9 °C 1015.0 hPa NE 17.1 km/h 29 km/h 70% 0.0 mm
20:14 27.9 °C 21.9 °C 1015.0 hPa NE 14 km/h 28.6 km/h 70% 0.0 mm
20:19 27.8 °C 21.8 °C 1015.0 hPa ENE 14.4 km/h 29.6 km/h 70% 0.0 mm
20:24 27.7 °C 21.7 °C 1014.9 hPa NE 15.6 km/h 28.2 km/h 69.8% 0.0 mm
20:29 27.7 °C 21.6 °C 1014.9 hPa NE 15.4 km/h 29.8 km/h 69.4% 0.0 mm
20:34 27.6 °C 21.5 °C 1015.2 hPa NE 14.8 km/h 30.6 km/h 69.6% 0.0 mm
20:39 27.6 °C 21.5 °C 1015.2 hPa NE 15.1 km/h 29.6 km/h 69.4% 0.0 mm
20:44 27.6 °C 21.4 °C 1015.2 hPa NE 16.1 km/h 31.7 km/h 69.1% 0.0 mm
20:49 27.4 °C 21.4 °C 1015.7 hPa NE 16.6 km/h 32.2 km/h 69.5% 0.0 mm
20:54 27.3 °C 21.4 °C 1015.7 hPa NE 18.4 km/h 33.3 km/h 70.3% 0.0 mm
20:59 27.3 °C 21.5 °C 1015.7 hPa NE 18.4 km/h 33.8 km/h 71% 0.0 mm
21:04 27.2 °C 21.5 °C 1015.7 hPa NE 18.4 km/h 32.2 km/h 71% 0.0 mm
21:09 27.2 °C 21.5 °C 1015.6 hPa NE 18.3 km/h 34.6 km/h 71% 0.0 mm
21:14 27.2 °C 21.5 °C 1015.6 hPa NE 18 km/h 35.4 km/h 71% 0.0 mm
21:19 27.1 °C 21.3 °C 1015.7 hPa NE 18.3 km/h 35.4 km/h 70.4% 0.0 mm
21:24 27.1 °C 21.2 °C 1015.7 hPa NE 19 km/h 35.4 km/h 70% 0.0 mm
21:29 27.1 °C 21.2 °C 1015.7 hPa NE 18.4 km/h 29 km/h 70% 0.0 mm
21:34 27.1 °C 21.2 °C 1015.7 hPa NE 16.1 km/h 25.7 km/h 70% 0.0 mm
21:39 27.1 °C 21.2 °C 1015.6 hPa NE 15.8 km/h 25.9 km/h 70% 0.0 mm
21:44 27.1 °C 21.2 °C 1015.6 hPa NE 14.8 km/h 25.7 km/h 70% 0.0 mm
21:49 27.1 °C 21.1 °C 1015.7 hPa NE 14.2 km/h 24.1 km/h 70% 0.0 mm
21:54 27 °C 21.1 °C 1015.7 hPa NE 12.2 km/h 24.1 km/h 70% 0.0 mm
21:59 27 °C 21.1 °C 1015.7 hPa NE 12 km/h 22.5 km/h 70% 0.0 mm
22:04 27 °C 21 °C 1016.1 hPa NE 11.1 km/h 28.6 km/h 70% 0.0 mm
22:09 26.9 °C 20.9 °C 1016.1 hPa NNE 11.4 km/h 29.6 km/h 70% 0.0 mm
22:14 26.9 °C 21 °C 1016.1 hPa NE 12.2 km/h 22.5 km/h 70.3% 0.0 mm
22:19 26.9 °C 21.2 °C 1016.4 hPa NNE 11.7 km/h 22.5 km/h 71% 0.0 mm
22:24 26.8 °C 21.2 °C 1016.4 hPa NE 9.5 km/h 16.1 km/h 71% 0.0 mm
22:29 26.8 °C 21.1 °C 1016.4 hPa NE 9.5 km/h 20.4 km/h 71% 0.0 mm
22:34 26.7 °C 21.2 °C 1016.4 hPa NE 9.5 km/h 22.2 km/h 71.9% 0.0 mm
22:39 26.7 °C 21.2 °C 1016.3 hPa NE 10.1 km/h 22.5 km/h 72% 0.0 mm
22:44 26.6 °C 21.1 °C 1016.3 hPa NE 12.2 km/h 20.1 km/h 72.1% 0.0 mm
22:49 26.6 °C 21.3 °C 1016.4 hPa NE 12.2 km/h 23.3 km/h 73% 0.0 mm
22:54 26.6 °C 21.3 °C 1016.4 hPa NE 11.9 km/h 24.1 km/h 73% 0.0 mm
22:59 26.6 °C 21.3 °C 1016.4 hPa NE 12 km/h 22.5 km/h 73% 0.0 mm
23:04 26.5 °C 21.4 °C 1016.7 hPa NNE 12.2 km/h 19.3 km/h 73.8% 0.0 mm
23:09 26.4 °C 21.2 °C 1016.7 hPa NNO 11.4 km/h 17.7 km/h 73.4% 0.0 mm
23:14 26.4 °C 21.2 °C 1016.7 hPa NO 8.7 km/h 12.2 km/h 73.3% 0.0 mm
23:19 26.3 °C 21.2 °C 1016.8 hPa NO 8.3 km/h 13 km/h 73.9% 0.0 mm
23:24 26.2 °C 21.2 °C 1016.8 hPa NO 6.9 km/h 15.6 km/h 74% 0.0 mm
23:29 26 °C 21 °C 1016.8 hPa NO 7.3 km/h 18.5 km/h 74% 0.0 mm
23:34 25.8 °C 20.9 °C 1016.9 hPa NO 8.7 km/h 19.3 km/h 74% 0.0 mm
23:39 25.8 °C 20.8 °C 1016.9 hPa NO 8.7 km/h 16.7 km/h 74% 0.0 mm
23:44 25.8 °C 20.8 °C 1016.9 hPa NNO 8.7 km/h 14.5 km/h 74% 0.0 mm
23:49 25.8 °C 20.8 °C 1016.9 hPa NO 8.1 km/h 10 km/h 74% 0.0 mm
23:54 25.8 °C 20.8 °C 1016.9 hPa NO 5.8 km/h 9.7 km/h 74% 0.0 mm
23:59 25.8 °C 20.9 °C 1016.9 hPa NO 5.3 km/h 8 km/h 74% 0.0 mm
Murcia-Puente Tocinos, Espa?a
Compliments of Weather Underground - 3 mb

La estación de MeteoMurcia.com, publica sus datos en los siguientes proyectos:

Weather Underground PWS IMURCIAP2 Meteoclimatic www.awekas.at

Web Analytics

Clicky